sensor_id;sensor_type;location;lat;lon;timestamp;pressure;altitude;pressure_sealevel;temperature;humidity
79037;BME280;68434;59.896;30.474;2023-03-14T00:00:05;99129.50;;;0.15;71.23
79037;BME280;68434;59.896;30.474;2023-03-14T00:02:35;99115.63;;;0.11;70.76
79037;BME280;68434;59.896;30.474;2023-03-14T00:05:02;99103.47;;;0.18;70.74
79037;BME280;68434;59.896;30.474;2023-03-14T00:07:34;99095.25;;;0.21;70.21
79037;BME280;68434;59.896;30.474;2023-03-14T00:10:03;99079.16;;;0.23;70.12
79037;BME280;68434;59.896;30.474;2023-03-14T00:12:31;99075.97;;;0.29;70.66
79037;BME280;68434;59.896;30.474;2023-03-14T00:14:59;99070.91;;;0.26;70.63
79037;BME280;68434;59.896;30.474;2023-03-14T00:17:29;99050.22;;;0.29;70.79
79037;BME280;68434;59.896;30.474;2023-03-14T00:19:57;99058.00;;;0.21;70.56
79037;BME280;68434;59.896;30.474;2023-03-14T00:22:30;99043.78;;;0.32;70.25
79037;BME280;68434;59.896;30.474;2023-03-14T00:24:59;99032.50;;;0.39;69.84
79037;BME280;68434;59.896;30.474;2023-03-14T00:27:26;99003.81;;;0.43;69.83
79037;BME280;68434;59.896;30.474;2023-03-14T00:29:53;99008.75;;;0.47;69.86
79037;BME280;68434;59.896;30.474;2023-03-14T00:32:21;99009.00;;;0.44;70.18
79037;BME280;68434;59.896;30.474;2023-03-14T00:34:48;98998.38;;;0.44;69.94
79037;BME280;68434;59.896;30.474;2023-03-14T00:37:15;98993.31;;;0.41;69.82
79037;BME280;68434;59.896;30.474;2023-03-14T00:39:43;98993.50;;;0.49;70.03
79037;BME280;68434;59.896;30.474;2023-03-14T00:42:12;98969.56;;;0.49;70.04
79037;BME280;68434;59.896;30.474;2023-03-14T00:44:39;98961.97;;;0.45;70.04
79037;BME280;68434;59.896;30.474;2023-03-14T00:47:07;98960.72;;;0.49;70.19
79037;BME280;68434;59.896;30.474;2023-03-14T00:49:34;98943.22;;;0.46;70.16
79037;BME280;68434;59.896;30.474;2023-03-14T00:52:02;98949.38;;;0.47;69.96
79037;BME280;68434;59.896;30.474;2023-03-14T00:54:29;98947.72;;;0.55;69.79
79037;BME280;68434;59.896;30.474;2023-03-14T00:56:57;98940.84;;;0.53;69.90
79037;BME280;68434;59.896;30.474;2023-03-14T00:59:25;98932.31;;;0.59;69.68
79037;BME280;68434;59.896;30.474;2023-03-14T01:01:53;98910.63;;;0.54;70.05
79037;BME280;68434;59.896;30.474;2023-03-14T01:04:20;98927.84;;;0.59;69.75
79037;BME280;68434;59.896;30.474;2023-03-14T01:06:48;98913.69;;;0.59;70.13
79037;BME280;68434;59.896;30.474;2023-03-14T01:09:15;98910.91;;;0.60;69.98
79037;BME280;68434;59.896;30.474;2023-03-14T01:11:43;98898.31;;;0.62;70.18
79037;BME280;68434;59.896;30.474;2023-03-14T01:14:12;98895.06;;;0.59;70.55
79037;BME280;68434;59.896;30.474;2023-03-14T01:16:41;98877.44;;;0.58;70.54
79037;BME280;68434;59.896;30.474;2023-03-14T01:19:09;98867.50;;;0.60;70.59
79037;BME280;68434;59.896;30.474;2023-03-14T01:21:37;98866.94;;;0.66;70.47
79037;BME280;68434;59.896;30.474;2023-03-14T01:24:05;98870.72;;;0.63;70.47
79037;BME280;68434;59.896;30.474;2023-03-14T01:26:34;98856.84;;;0.69;69.94
79037;BME280;68434;59.896;30.474;2023-03-14T01:29:04;98851.38;;;0.71;69.91
79037;BME280;68434;59.896;30.474;2023-03-14T01:31:34;98831.53;;;0.75;70.13
79037;BME280;68434;59.896;30.474;2023-03-14T01:34:03;98821.56;;;0.77;69.95
79037;BME280;68434;59.896;30.474;2023-03-14T01:36:31;98828.56;;;0.78;69.89
79037;BME280;68434;59.896;30.474;2023-03-14T01:39:00;98808.53;;;0.83;70.20
79037;BME280;68434;59.896;30.474;2023-03-14T01:41:28;98808.09;;;0.78;70.18
79037;BME280;68434;59.896;30.474;2023-03-14T01:43:57;98801.41;;;0.84;69.65
79037;BME280;68434;59.896;30.474;2023-03-14T01:46:30;98786.81;;;0.78;70.41
79037;BME280;68434;59.896;30.474;2023-03-14T01:49:06;98789.06;;;0.83;70.47
79037;BME280;68434;59.896;30.474;2023-03-14T01:51:41;98778.41;;;0.83;70.38
79037;BME280;68434;59.896;30.474;2023-03-14T01:54:14;98776.88;;;0.80;70.98
79037;BME280;68434;59.896;30.474;2023-03-14T01:56:46;98771.56;;;0.90;70.25
79037;BME280;68434;59.896;30.474;2023-03-14T01:59:15;98758.53;;;0.87;71.22
79037;BME280;68434;59.896;30.474;2023-03-14T02:01:46;98767.03;;;1.00;70.49
79037;BME280;68434;59.896;30.474;2023-03-14T02:04:16;98753.88;;;0.98;70.63
79037;BME280;68434;59.896;30.474;2023-03-14T02:06:50;98756.81;;;0.95;70.76
79037;BME280;68434;59.896;30.474;2023-03-14T02:09:22;98750.78;;;0.93;71.10
79037;BME280;68434;59.896;30.474;2023-03-14T02:11:50;98732.16;;;0.93;71.84
79037;BME280;68434;59.896;30.474;2023-03-14T02:14:37;98725.28;;;1.00;71.29
79037;BME280;68434;59.896;30.474;2023-03-14T02:17:30;98733.53;;;1.07;71.16
79037;BME280;68434;59.896;30.474;2023-03-14T02:20:29;98715.03;;;1.05;71.75
79037;BME280;68434;59.896;30.474;2023-03-14T02:22:59;98710.84;;;1.03;71.78
79037;BME280;68434;59.896;30.474;2023-03-14T02:25:38;98695.56;;;1.05;71.71
79037;BME280;68434;59.896;30.474;2023-03-14T02:28:09;98695.00;;;1.11;72.16
79037;BME280;68434;59.896;30.474;2023-03-14T02:30:38;98696.66;;;1.12;72.11
79037;BME280;68434;59.896;30.474;2023-03-14T02:33:08;98686.72;;;1.14;72.55
79037;BME280;68434;59.896;30.474;2023-03-14T02:35:40;98676.59;;;1.17;72.10
79037;BME280;68434;59.896;30.474;2023-03-14T02:38:15;98691.59;;;1.18;71.93
79037;BME280;68434;59.896;30.474;2023-03-14T02:40:45;98683.53;;;1.28;72.21
79037;BME280;68434;59.896;30.474;2023-03-14T02:43:14;98679.19;;;1.36;71.94
79037;BME280;68434;59.896;30.474;2023-03-14T02:45:49;98673.19;;;1.25;72.67
79037;BME280;68434;59.896;30.474;2023-03-14T02:48:22;98674.44;;;1.30;72.22
79037;BME280;68434;59.896;30.474;2023-03-14T02:50:54;98679.56;;;1.41;72.31
79037;BME280;68434;59.896;30.474;2023-03-14T02:53:25;98676.44;;;1.46;72.13
79037;BME280;68434;59.896;30.474;2023-03-14T02:55:55;98675.78;;;1.44;72.68
79037;BME280;68434;59.896;30.474;2023-03-14T02:58:26;98667.34;;;1.48;72.88
79037;BME280;68434;59.896;30.474;2023-03-14T03:01:00;98664.38;;;1.51;72.85
79037;BME280;68434;59.896;30.474;2023-03-14T03:03:28;98653.88;;;1.50;72.90
79037;BME280;68434;59.896;30.474;2023-03-14T03:05:56;98662.53;;;1.52;73.30
79037;BME280;68434;59.896;30.474;2023-03-14T03:08:25;98649.06;;;1.53;73.30
79037;BME280;68434;59.896;30.474;2023-03-14T03:10:54;98638.94;;;1.57;73.29
79037;BME280;68434;59.896;30.474;2023-03-14T03:13:25;98641.88;;;1.63;73.63
79037;BME280;68434;59.896;30.474;2023-03-14T03:15:55;98635.97;;;1.60;74.21
79037;BME280;68434;59.896;30.474;2023-03-14T03:18:22;98633.72;;;1.65;74.23
79037;BME280;68434;59.896;30.474;2023-03-14T03:20:50;98626.78;;;1.72;73.83
79037;BME280;68434;59.896;30.474;2023-03-14T03:23:20;98624.28;;;1.70;74.37
79037;BME280;68434;59.896;30.474;2023-03-14T03:25:48;98628.31;;;1.74;74.46
79037;BME280;68434;59.896;30.474;2023-03-14T03:28:16;98624.88;;;1.82;74.07
79037;BME280;68434;59.896;30.474;2023-03-14T03:30:45;98619.03;;;1.78;74.64
79037;BME280;68434;59.896;30.474;2023-03-14T03:33:13;98608.97;;;1.90;74.59
79037;BME280;68434;59.896;30.474;2023-03-14T03:35:45;98608.81;;;1.91;74.40
79037;BME280;68434;59.896;30.474;2023-03-14T03:38:14;98597.31;;;1.91;74.91
79037;BME280;68434;59.896;30.474;2023-03-14T03:40:43;98604.34;;;1.92;74.70
79037;BME280;68434;59.896;30.474;2023-03-14T03:43:11;98601.22;;;1.97;74.54
79037;BME280;68434;59.896;30.474;2023-03-14T03:45:41;98590.22;;;2.00;74.78
79037;BME280;68434;59.896;30.474;2023-03-14T03:48:10;98583.06;;;2.00;75.27
79037;BME280;68434;59.896;30.474;2023-03-14T03:50:44;98592.13;;;2.07;74.99
79037;BME280;68434;59.896;30.474;2023-03-14T03:53:12;98583.97;;;2.09;74.92
79037;BME280;68434;59.896;30.474;2023-03-14T03:55:40;98585.72;;;2.18;75.05
79037;BME280;68434;59.896;30.474;2023-03-14T03:58:09;98588.84;;;2.13;75.35
79037;BME280;68434;59.896;30.474;2023-03-14T04:00:37;98572.38;;;2.18;75.78
79037;BME280;68434;59.896;30.474;2023-03-14T04:03:05;98583.41;;;2.23;75.70
79037;BME280;68434;59.896;30.474;2023-03-14T04:05:34;98563.06;;;2.22;75.99
79037;BME280;68434;59.896;30.474;2023-03-14T04:08:07;98578.13;;;2.31;75.84
79037;BME280;68434;59.896;30.474;2023-03-14T04:10:34;98566.38;;;2.41;75.65
79037;BME280;68434;59.896;30.474;2023-03-14T04:13:11;98555.69;;;2.41;75.81
79037;BME280;68434;59.896;30.474;2023-03-14T04:15:41;98559.38;;;2.48;75.85
79037;BME280;68434;59.896;30.474;2023-03-14T04:18:15;98576.78;;;2.52;75.57
79037;BME280;68434;59.896;30.474;2023-03-14T04:20:44;98575.09;;;2.51;75.79
79037;BME280;68434;59.896;30.474;2023-03-14T04:23:12;98568.50;;;2.63;75.76
79037;BME280;68434;59.896;30.474;2023-03-14T04:25:39;98555.69;;;2.67;76.14
79037;BME280;68434;59.896;30.474;2023-03-14T04:28:07;98564.66;;;2.66;76.06
79037;BME280;68434;59.896;30.474;2023-03-14T04:30:36;98563.22;;;2.71;76.25
79037;BME280;68434;59.896;30.474;2023-03-14T04:33:12;98548.84;;;2.72;76.23
79037;BME280;68434;59.896;30.474;2023-03-14T04:35:53;98558.41;;;2.83;76.16
79037;BME280;68434;59.896;30.474;2023-03-14T04:38:21;98553.91;;;2.83;75.74
79037;BME280;68434;59.896;30.474;2023-03-14T04:40:50;98553.59;;;2.86;76.25
79037;BME280;68434;59.896;30.474;2023-03-14T04:43:19;98548.91;;;2.88;76.14
79037;BME280;68434;59.896;30.474;2023-03-14T04:45:51;98551.78;;;2.95;76.44
79037;BME280;68434;59.896;30.474;2023-03-14T04:48:19;98542.28;;;3.00;76.93
79037;BME280;68434;59.896;30.474;2023-03-14T04:50:47;98541.63;;;2.98;76.68
79037;BME280;68434;59.896;30.474;2023-03-14T04:53:17;98537.31;;;3.05;76.95
79037;BME280;68434;59.896;30.474;2023-03-14T04:55:48;98535.66;;;3.04;77.16
79037;BME280;68434;59.896;30.474;2023-03-14T04:58:16;98517.44;;;3.08;77.40
79037;BME280;68434;59.896;30.474;2023-03-14T05:00:45;98526.81;;;3.12;77.66
79037;BME280;68434;59.896;30.474;2023-03-14T05:03:44;98527.34;;;3.23;77.91
79037;BME280;68434;59.896;30.474;2023-03-14T05:06:30;98519.16;;;3.25;77.79
79037;BME280;68434;59.896;30.474;2023-03-14T05:09:01;98496.94;;;3.16;77.81
79037;BME280;68434;59.896;30.474;2023-03-14T05:12:06;98529.22;;;3.39;77.57
79037;BME280;68434;59.896;30.474;2023-03-14T05:14:50;98515.53;;;3.42;77.82
79037;BME280;68434;59.896;30.474;2023-03-14T05:17:38;98517.56;;;3.48;77.45
79037;BME280;68434;59.896;30.474;2023-03-14T05:20:31;98511.72;;;3.52;77.54
79037;BME280;68434;59.896;30.474;2023-03-14T05:23:37;98511.56;;;3.54;77.62
79037;BME280;68434;59.896;30.474;2023-03-14T05:26:15;98519.22;;;3.65;77.33
79037;BME280;68434;59.896;30.474;2023-03-14T05:28:57;98510.22;;;3.66;77.32
79037;BME280;68434;59.896;30.474;2023-03-14T05:31:43;98510.03;;;3.75;77.19
79037;BME280;68434;59.896;30.474;2023-03-14T05:34:29;98523.09;;;3.78;77.77
79037;BME280;68434;59.896;30.474;2023-03-14T05:37:15;98513.06;;;3.88;77.50
79037;BME280;68434;59.896;30.474;2023-03-14T05:40:06;98518.25;;;3.98;77.43
79037;BME280;68434;59.896;30.474;2023-03-14T05:42:43;98514.25;;;4.02;76.88
79037;BME280;68434;59.896;30.474;2023-03-14T05:45:35;98499.19;;;4.09;76.93
79037;BME280;68434;59.896;30.474;2023-03-14T05:48:23;98512.72;;;4.08;76.83
79037;BME280;68434;59.896;30.474;2023-03-14T05:51:09;98505.38;;;4.10;76.72
79037;BME280;68434;59.896;30.474;2023-03-14T05:53:55;98516.22;;;4.16;76.74
79037;BME280;68434;59.896;30.474;2023-03-14T05:57:01;98504.31;;;4.27;76.61
79037;BME280;68434;59.896;30.474;2023-03-14T05:59:32;98503.69;;;4.17;77.09
79037;BME280;68434;59.896;30.474;2023-03-14T06:02:18;98508.19;;;4.32;77.03
79037;BME280;68434;59.896;30.474;2023-03-14T06:04:55;98500.28;;;4.39;77.19
79037;BME280;68434;59.896;30.474;2023-03-14T06:07:23;98500.63;;;4.44;77.21
79037;BME280;68434;59.896;30.474;2023-03-14T06:09:50;98499.94;;;4.42;77.66
79037;BME280;68434;59.896;30.474;2023-03-14T06:12:19;98509.81;;;4.49;77.34
79037;BME280;68434;59.896;30.474;2023-03-14T06:14:48;98495.59;;;4.49;76.93
79037;BME280;68434;59.896;30.474;2023-03-14T06:17:15;98501.06;;;4.63;77.57
79037;BME280;68434;59.896;30.474;2023-03-14T06:19:50;98503.59;;;4.57;77.59
79037;BME280;68434;59.896;30.474;2023-03-14T06:22:17;98502.09;;;4.62;77.43
79037;BME280;68434;59.896;30.474;2023-03-14T06:24:46;98485.78;;;4.72;78.00
79037;BME280;68434;59.896;30.474;2023-03-14T06:27:15;98481.56;;;4.85;77.59
79037;BME280;68434;59.896;30.474;2023-03-14T06:29:43;98487.44;;;4.81;77.57
79037;BME280;68434;59.896;30.474;2023-03-14T06:32:12;98491.09;;;4.88;77.70
79037;BME280;68434;59.896;30.474;2023-03-14T06:34:39;98486.22;;;4.91;77.93
79037;BME280;68434;59.896;30.474;2023-03-14T06:37:07;98493.72;;;4.96;77.46
79037;BME280;68434;59.896;30.474;2023-03-14T06:39:37;98488.34;;;5.04;77.48
79037;BME280;68434;59.896;30.474;2023-03-14T06:42:12;98486.94;;;5.16;77.44
79037;BME280;68434;59.896;30.474;2023-03-14T06:44:40;98489.56;;;5.24;77.17
79037;BME280;68434;59.896;30.474;2023-03-14T06:47:08;98489.56;;;5.24;77.10
79037;BME280;68434;59.896;30.474;2023-03-14T06:49:40;98504.47;;;5.26;76.96
79037;BME280;68434;59.896;30.474;2023-03-14T06:52:08;98506.63;;;5.31;76.80
79037;BME280;68434;59.896;30.474;2023-03-14T06:54:36;98497.16;;;5.43;76.79
79037;BME280;68434;59.896;30.474;2023-03-14T06:57:03;98512.63;;;5.33;77.24
79037;BME280;68434;59.896;30.474;2023-03-14T06:59:33;98507.25;;;5.33;76.92
79037;BME280;68434;59.896;30.474;2023-03-14T07:02:00;98519.50;;;5.35;77.17
79037;BME280;68434;59.896;30.474;2023-03-14T07:04:28;98526.09;;;5.25;77.81
79037;BME280;68434;59.896;30.474;2023-03-14T07:06:57;98526.00;;;5.41;77.49
79037;BME280;68434;59.896;30.474;2023-03-14T07:09:24;98533.59;;;5.29;77.18
79037;BME280;68434;59.896;30.474;2023-03-14T07:11:57;98534.22;;;5.39;77.63
79037;BME280;68434;59.896;30.474;2023-03-14T07:14:24;98533.69;;;5.44;77.34
79037;BME280;68434;59.896;30.474;2023-03-14T07:16:54;98525.63;;;5.44;77.68
79037;BME280;68434;59.896;30.474;2023-03-14T07:19:22;98541.88;;;5.50;77.88
79037;BME280;68434;59.896;30.474;2023-03-14T07:21:49;98532.47;;;5.46;77.10
79037;BME280;68434;59.896;30.474;2023-03-14T07:24:23;98545.72;;;5.48;77.56
79037;BME280;68434;59.896;30.474;2023-03-14T07:26:50;98550.72;;;5.51;77.63
79037;BME280;68434;59.896;30.474;2023-03-14T07:29:18;98535.13;;;5.54;77.67
79037;BME280;68434;59.896;30.474;2023-03-14T07:31:45;98565.41;;;5.63;77.55
79037;BME280;68434;59.896;30.474;2023-03-14T07:34:17;98571.28;;;5.58;77.44
79037;BME280;68434;59.896;30.474;2023-03-14T07:36:45;98563.91;;;5.60;77.95
79037;BME280;68434;59.896;30.474;2023-03-14T07:39:13;98573.63;;;5.61;77.86
79037;BME280;68434;59.896;30.474;2023-03-14T07:42:20;98550.13;;;5.71;78.01
79037;BME280;68434;59.896;30.474;2023-03-14T07:44:58;98568.13;;;5.86;77.70
79037;BME280;68434;59.896;30.474;2023-03-14T07:47:25;98561.97;;;5.85;77.25
79037;BME280;68434;59.896;30.474;2023-03-14T07:49:53;98562.38;;;5.66;77.76
79037;BME280;68434;59.896;30.474;2023-03-14T07:52:20;98560.94;;;5.86;77.73
79037;BME280;68434;59.896;30.474;2023-03-14T07:54:48;98577.00;;;5.94;77.29
79037;BME280;68434;59.896;30.474;2023-03-14T07:57:15;98559.38;;;5.92;77.06
79037;BME280;68434;59.896;30.474;2023-03-14T07:59:45;98558.38;;;5.93;77.39
79037;BME280;68434;59.896;30.474;2023-03-14T08:02:12;98579.31;;;5.97;77.04
79037;BME280;68434;59.896;30.474;2023-03-14T08:04:40;98567.78;;;5.89;77.53
79037;BME280;68434;59.896;30.474;2023-03-14T08:07:07;98571.91;;;5.99;76.95
79037;BME280;68434;59.896;30.474;2023-03-14T08:09:35;98573.06;;;6.05;77.07
79037;BME280;68434;59.896;30.474;2023-03-14T08:12:02;98577.88;;;6.09;76.59
79037;BME280;68434;59.896;30.474;2023-03-14T08:14:30;98578.16;;;6.14;76.62
79037;BME280;68434;59.896;30.474;2023-03-14T08:16:59;98580.84;;;6.14;76.48
79037;BME280;68434;59.896;30.474;2023-03-14T08:19:27;98580.25;;;6.27;76.65
79037;BME280;68434;59.896;30.474;2023-03-14T08:21:54;98579.03;;;6.29;76.84
79037;BME280;68434;59.896;30.474;2023-03-14T08:24:22;98578.09;;;6.22;76.73
79037;BME280;68434;59.896;30.474;2023-03-14T08:26:49;98580.44;;;6.25;76.48
79037;BME280;68434;59.896;30.474;2023-03-14T08:29:17;98573.41;;;6.24;76.54
79037;BME280;68434;59.896;30.474;2023-03-14T08:31:44;98582.59;;;6.44;76.06
79037;BME280;68434;59.896;30.474;2023-03-14T08:34:13;98577.78;;;6.40;76.44
79037;BME280;68434;59.896;30.474;2023-03-14T08:36:41;98570.94;;;6.37;76.73
79037;BME280;68434;59.896;30.474;2023-03-14T08:39:08;98580.75;;;6.45;76.93
79037;BME280;68434;59.896;30.474;2023-03-14T08:41:36;98578.50;;;6.71;76.21
79037;BME280;68434;59.896;30.474;2023-03-14T08:44:06;98578.31;;;6.72;75.51
79037;BME280;68434;59.896;30.474;2023-03-14T08:46:33;98581.47;;;6.76;75.45
79037;BME280;68434;59.896;30.474;2023-03-14T08:49:01;98592.22;;;6.76;75.65
79037;BME280;68434;59.896;30.474;2023-03-14T08:51:30;98595.00;;;6.82;75.88
79037;BME280;68434;59.896;30.474;2023-03-14T08:53:58;98572.88;;;6.95;75.81
79037;BME280;68434;59.896;30.474;2023-03-14T08:56:25;98593.53;;;6.94;74.92
79037;BME280;68434;59.896;30.474;2023-03-14T08:58:53;98598.25;;;6.92;75.16
79037;BME280;68434;59.896;30.474;2023-03-14T09:01:20;98607.34;;;6.91;75.14
79037;BME280;68434;59.896;30.474;2023-03-14T09:03:50;98608.19;;;6.92;75.46
79037;BME280;68434;59.896;30.474;2023-03-14T09:06:17;98616.06;;;6.93;75.39
79037;BME280;68434;59.896;30.474;2023-03-14T09:08:46;98622.00;;;7.03;75.47
79037;BME280;68434;59.896;30.474;2023-03-14T09:11:14;98623.09;;;7.09;75.08
79037;BME280;68434;59.896;30.474;2023-03-14T09:13:41;98639.72;;;7.12;74.88
79037;BME280;68434;59.896;30.474;2023-03-14T09:16:09;98635.91;;;7.21;74.57
79037;BME280;68434;59.896;30.474;2023-03-14T09:18:37;98650.56;;;7.19;74.55
79037;BME280;68434;59.896;30.474;2023-03-14T09:21:08;98644.47;;;7.25;74.54
79037;BME280;68434;59.896;30.474;2023-03-14T09:23:36;98650.50;;;7.41;74.38
79037;BME280;68434;59.896;30.474;2023-03-14T09:26:05;98636.09;;;7.34;73.72
79037;BME280;68434;59.896;30.474;2023-03-14T09:28:33;98639.06;;;7.39;74.01
79037;BME280;68434;59.896;30.474;2023-03-14T09:31:06;98653.34;;;7.25;73.59
79037;BME280;68434;59.896;30.474;2023-03-14T09:33:33;98651.97;;;7.29;73.96
79037;BME280;68434;59.896;30.474;2023-03-14T09:36:01;98652.03;;;7.36;73.74
79037;BME280;68434;59.896;30.474;2023-03-14T09:38:29;98652.63;;;7.46;73.34
79037;BME280;68434;59.896;30.474;2023-03-14T09:40:59;98658.38;;;7.43;73.78
79037;BME280;68434;59.896;30.474;2023-03-14T09:43:31;98669.41;;;7.33;73.76
79037;BME280;68434;59.896;30.474;2023-03-14T09:46:01;98671.53;;;7.38;74.03
79037;BME280;68434;59.896;30.474;2023-03-14T09:48:32;98664.38;;;7.45;73.41
79037;BME280;68434;59.896;30.474;2023-03-14T09:51:04;98659.84;;;7.45;73.32
79037;BME280;68434;59.896;30.474;2023-03-14T09:53:37;98659.94;;;7.52;73.78
79037;BME280;68434;59.896;30.474;2023-03-14T09:56:12;98686.56;;;7.61;72.58
79037;BME280;68434;59.896;30.474;2023-03-14T09:58:44;98677.91;;;7.66;72.52
79037;BME280;68434;59.896;30.474;2023-03-14T10:01:15;98675.28;;;7.87;71.59
79037;BME280;68434;59.896;30.474;2023-03-14T10:03:45;98680.56;;;7.95;71.80
79037;BME280;68434;59.896;30.474;2023-03-14T10:06:14;98677.22;;;7.93;71.26
79037;BME280;68434;59.896;30.474;2023-03-14T10:08:42;98679.44;;;7.90;72.33
79037;BME280;68434;59.896;30.474;2023-03-14T10:11:13;98681.97;;;7.91;71.36
79037;BME280;68434;59.896;30.474;2023-03-14T10:16:33;98694.38;;;8.07;72.07
79037;BME280;68434;59.896;30.474;2023-03-14T10:19:06;98685.44;;;8.21;70.58
79037;BME280;68434;59.896;30.474;2023-03-14T10:21:39;98690.53;;;8.30;70.26
79037;BME280;68434;59.896;30.474;2023-03-14T10:24:08;98691.84;;;8.34;70.14
79037;BME280;68434;59.896;30.474;2023-03-14T10:26:37;98676.28;;;8.36;70.44
79037;BME280;68434;59.896;30.474;2023-03-14T10:29:11;98684.72;;;8.48;69.82
79037;BME280;68434;59.896;30.474;2023-03-14T10:31:51;98682.22;;;8.67;69.19
79037;BME280;68434;59.896;30.474;2023-03-14T10:34:22;98686.28;;;8.57;68.83
79037;BME280;68434;59.896;30.474;2023-03-14T10:36:54;98692.25;;;8.52;69.49
79037;BME280;68434;59.896;30.474;2023-03-14T10:39:38;98700.25;;;8.46;69.16
79037;BME280;68434;59.896;30.474;2023-03-14T10:42:19;98701.47;;;8.43;70.19
79037;BME280;68434;59.896;30.474;2023-03-14T10:44:54;98709.28;;;8.38;69.33
79037;BME280;68434;59.896;30.474;2023-03-14T10:47:24;98706.50;;;8.32;69.32
79037;BME280;68434;59.896;30.474;2023-03-14T10:49:54;98708.31;;;8.25;69.66
79037;BME280;68434;59.896;30.474;2023-03-14T10:52:24;98717.88;;;8.13;70.46
79037;BME280;68434;59.896;30.474;2023-03-14T10:54:56;98713.56;;;8.18;70.52
79037;BME280;68434;59.896;30.474;2023-03-14T10:57:24;98709.78;;;8.13;70.36
79037;BME280;68434;59.896;30.474;2023-03-14T10:59:54;98707.25;;;8.26;69.90
79037;BME280;68434;59.896;30.474;2023-03-14T11:02:33;98710.50;;;8.36;69.32
79037;BME280;68434;59.896;30.474;2023-03-14T11:05:18;98723.50;;;8.32;69.75
79037;BME280;68434;59.896;30.474;2023-03-14T11:07:48;98717.66;;;8.29;70.12
79037;BME280;68434;59.896;30.474;2023-03-14T11:10:22;98715.34;;;8.26;69.72
79037;BME280;68434;59.896;30.474;2023-03-14T11:13:06;98705.50;;;8.33;69.19
79037;BME280;68434;59.896;30.474;2023-03-14T11:15:41;98705.69;;;8.31;69.07
79037;BME280;68434;59.896;30.474;2023-03-14T11:21:15;98716.91;;;8.35;70.28
79037;BME280;68434;59.896;30.474;2023-03-14T11:23:53;98715.50;;;8.39;70.00
79037;BME280;68434;59.896;30.474;2023-03-14T11:26:30;98734.94;;;8.34;69.66
79037;BME280;68434;59.896;30.474;2023-03-14T11:29:11;98740.72;;;8.31;69.47
79037;BME280;68434;59.896;30.474;2023-03-14T11:31:46;98737.56;;;8.28;69.79
79037;BME280;68434;59.896;30.474;2023-03-14T11:34:16;98740.63;;;8.25;69.60
79037;BME280;68434;59.896;30.474;2023-03-14T11:36:50;98736.09;;;8.25;69.96
79037;BME280;68434;59.896;30.474;2023-03-14T11:39:20;98743.22;;;8.33;69.77
79037;BME280;68434;59.896;30.474;2023-03-14T11:41:48;98748.84;;;8.38;70.15
79037;BME280;68434;59.896;30.474;2023-03-14T11:44:19;98754.72;;;8.41;69.98
79037;BME280;68434;59.896;30.474;2023-03-14T11:46:52;98751.72;;;8.36;69.84
79037;BME280;68434;59.896;30.474;2023-03-14T11:49:25;98750.91;;;8.36;69.70
79037;BME280;68434;59.896;30.474;2023-03-14T11:51:57;98770.06;;;8.26;69.01
79037;BME280;68434;59.896;30.474;2023-03-14T11:54:34;98779.63;;;8.29;70.08
79037;BME280;68434;59.896;30.474;2023-03-14T11:57:04;98773.59;;;8.27;69.10
79037;BME280;68434;59.896;30.474;2023-03-14T11:59:38;98767.19;;;8.28;69.05
79037;BME280;68434;59.896;30.474;2023-03-14T12:02:16;98771.91;;;8.26;69.56
79037;BME280;68434;59.896;30.474;2023-03-14T12:05:05;98778.06;;;8.34;69.45
79037;BME280;68434;59.896;30.474;2023-03-14T12:07:43;98778.88;;;8.35;68.93
79037;BME280;68434;59.896;30.474;2023-03-14T12:10:22;98778.88;;;8.35;69.96
79037;BME280;68434;59.896;30.474;2023-03-14T12:12:50;98780.09;;;8.32;69.34
79037;BME280;68434;59.896;30.474;2023-03-14T12:15:19;98790.88;;;8.32;69.22
79037;BME280;68434;59.896;30.474;2023-03-14T12:17:53;98794.84;;;8.22;69.49
79037;BME280;68434;59.896;30.474;2023-03-14T12:20:23;98787.25;;;8.25;69.51
79037;BME280;68434;59.896;30.474;2023-03-14T12:22:53;98805.38;;;8.31;69.60
79037;BME280;68434;59.896;30.474;2023-03-14T12:25:22;98808.88;;;8.32;69.43
79037;BME280;68434;59.896;30.474;2023-03-14T12:28:18;98792.91;;;8.30;69.75
79037;BME280;68434;59.896;30.474;2023-03-14T12:30:46;98803.97;;;8.35;70.07
79037;BME280;68434;59.896;30.474;2023-03-14T12:33:33;98803.69;;;8.45;69.33
79037;BME280;68434;59.896;30.474;2023-03-14T12:36:04;98797.91;;;8.48;68.38
79037;BME280;68434;59.896;30.474;2023-03-14T12:38:45;98803.72;;;8.51;68.57
79037;BME280;68434;59.896;30.474;2023-03-14T12:41:17;98796.59;;;8.58;68.03
79037;BME280;68434;59.896;30.474;2023-03-14T12:43:47;98799.34;;;8.65;68.44
79037;BME280;68434;59.896;30.474;2023-03-14T12:46:19;98800.69;;;8.75;67.75
79037;BME280;68434;59.896;30.474;2023-03-14T12:48:50;98808.88;;;8.82;67.97
79037;BME280;68434;59.896;30.474;2023-03-14T12:51:28;98812.78;;;8.79;67.33
79037;BME280;68434;59.896;30.474;2023-03-14T12:54:33;98826.66;;;8.76;68.36
79037;BME280;68434;59.896;30.474;2023-03-14T12:57:11;98835.88;;;8.67;67.93
79037;BME280;68434;59.896;30.474;2023-03-14T12:59:46;98828.94;;;8.58;67.63
79037;BME280;68434;59.896;30.474;2023-03-14T13:02:22;98834.38;;;8.65;67.61
79037;BME280;68434;59.896;30.474;2023-03-14T13:04:54;98834.75;;;8.62;68.32
79037;BME280;68434;59.896;30.474;2023-03-14T13:07:32;98825.09;;;8.67;68.19
79037;BME280;68434;59.896;30.474;2023-03-14T13:10:16;98831.38;;;8.74;67.82
79037;BME280;68434;59.896;30.474;2023-03-14T13:12:48;98821.69;;;8.80;67.36
79037;BME280;68434;59.896;30.474;2023-03-14T13:15:24;98837.25;;;8.78;67.10
79037;BME280;68434;59.896;30.474;2023-03-14T13:17:56;98828.03;;;8.72;67.07
79037;BME280;68434;59.896;30.474;2023-03-14T13:20:34;98837.81;;;8.73;67.16
79037;BME280;68434;59.896;30.474;2023-03-14T13:23:03;98841.91;;;8.69;68.15
79037;BME280;68434;59.896;30.474;2023-03-14T13:25:33;98842.09;;;8.68;67.72
79037;BME280;68434;59.896;30.474;2023-03-14T13:28:01;98850.66;;;8.71;67.03
79037;BME280;68434;59.896;30.474;2023-03-14T13:30:38;98847.66;;;8.66;67.54